Time;durP1;ratioP1;P1;durP2;ratioP2;P2;SDS_P1;SDS_P2;PMS_P1;PMS_P2;Temp;Humidity;BMP_temperature;BMP_pressure;BME280_temperature;BME280_humidity;BME280_pressure;Samples;Min_cycle;Max_cycle;Signal;HPM_P1;HPM_P2
2022/04/27 00:02:18;;;;;;;4.70;4.00;;;;;;;10.12;78.95;99199.94;5091236;28;41685;-80
2022/04/27 00:04:46;;;;;;;4.40;3.90;;;;;;;10.12;79.02;99199.94;5108277;28;43053;-81
2022/04/27 00:07:14;;;;;;;3.77;3.40;;;;;;;10.13;79.01;99190.19;5091227;28;41785;-79
2022/04/27 00:09:41;;;;;;;5.37;3.67;;;;;;;10.15;78.88;99189.16;5091340;28;40266;-80
2022/04/27 00:12:11;;;;;;;4.00;3.60;;;;;;;10.17;78.60;99197.88;5090502;28;40504;-80
2022/04/27 00:14:39;;;;;;;4.60;4.17;;;;;;;10.17;78.92;99192.56;5090514;28;42116;-79
2022/04/27 00:17:07;;;;;;;4.13;3.73;;;;;;;10.18;78.81;99204.00;5107879;28;43198;-80
2022/04/27 00:19:34;;;;;;;4.57;3.43;;;;;;;10.13;78.61;99185.75;5082341;28;38708;-82
2022/04/27 00:22:02;;;;;;;3.67;3.10;;;;;;;10.20;78.44;99188.94;5112998;27;41913;-79
2022/04/27 00:24:29;;;;;;;4.87;4.17;;;;;;;10.21;78.33;99191.50;5131803;27;42828;-79
2022/04/27 00:26:57;;;;;;;3.70;3.40;;;;;;;10.18;78.14;99194.31;5114599;28;41903;-76
2022/04/27 00:29:26;;;;;;;3.43;3.10;;;;;;;9.91;78.21;99142.88;5113930;28;42504;-80
2022/04/27 00:31:53;;;;;;;4.03;3.63;;;;;;;10.20;78.35;99197.75;5097651;28;42122;-82
2022/04/27 00:34:21;;;;;;;3.63;3.23;;;;;;;10.22;78.00;99201.16;5098046;28;41525;-79
2022/04/27 00:36:48;;;;;;;4.23;3.50;;;;;;;10.22;78.08;99202.94;5097830;28;42359;-81
2022/04/27 00:39:17;;;;;;;3.90;3.50;;;;;;;10.23;78.15;99197.56;5101467;28;41045;-80
2022/04/27 00:44:43;;;;;;;4.70;4.20;;;;;;;10.19;78.94;99198.69;5166687;27;20563;-81
2022/04/27 00:47:11;;;;;;;4.93;4.07;;;;;;;10.20;78.59;99200.38;5132628;27;39359;-79
2022/04/27 00:49:42;;;;;;;4.07;3.43;;;;;;;10.22;78.37;99209.09;5131956;27;40733;-79
2022/04/27 00:52:12;;;;;;;4.50;3.73;;;;;;;10.25;78.26;99211.59;5146332;27;42931;-81
2022/04/27 00:54:40;;;;;;;3.77;3.40;;;;;;;10.19;78.05;99201.31;5149418;27;43155;-80
2022/04/27 00:57:08;;;;;;;3.97;3.33;;;;;;;10.29;77.89;99214.91;5158456;27;39859;-79
2022/04/27 00:59:36;;;;;;;4.40;3.87;;;;;;;10.22;78.16;99203.81;5152867;27;41034;-80
2022/04/27 01:02:06;;;;;;;4.60;3.67;;;;;;;10.29;77.81;99215.75;5152673;27;43667;-80
2022/04/27 01:04:34;;;;;;;5.30;4.03;;;;;;;10.30;77.90;99230.69;5153715;27;41009;-76
2022/04/27 01:07:02;;;;;;;4.03;3.47;;;;;;;10.20;77.89;99212.75;5156415;27;40326;-81
2022/04/27 01:09:30;;;;;;;4.07;3.30;;;;;;;10.22;77.87;99211.75;5170883;27;42701;-81
2022/04/27 01:11:59;;;;;;;3.50;3.20;;;;;;;10.33;77.46;99234.97;5170529;27;43702;-82
2022/04/27 01:14:27;;;;;;;4.60;3.57;;;;;;;10.33;77.61;99234.97;5152704;27;41577;-83
2022/04/27 01:16:56;;;;;;;4.40;3.00;;;;;;;10.35;77.75;99239.25;5166792;27;38800;-76
2022/04/27 01:19:26;;;;;;;4.00;3.50;;;;;;;10.30;77.39;99232.50;5184357;27;42528;-77
2022/04/27 01:21:56;;;;;;;3.70;3.23;;;;;;;10.37;77.31;99234.72;5167199;27;41613;-79
2022/04/27 01:24:25;;;;;;;4.17;3.70;;;;;;;10.31;77.41;99227.13;5184464;27;44709;-79
2022/04/27 01:26:53;;;;;;;3.40;3.00;;;;;;;10.25;77.15;99216.03;5184425;27;40652;-77
2022/04/27 01:29:22;;;;;;;3.40;2.97;;;;;;;10.32;77.03;99234.13;5171976;27;40577;-84
2022/04/27 01:31:50;;;;;;;3.40;3.10;;;;;;;10.37;76.94;99242.66;5170662;27;42494;-82
2022/04/27 01:34:19;;;;;;;4.70;3.33;;;;;;;10.31;77.01;99232.41;5171743;27;42857;-80
2022/04/27 01:36:47;;;;;;;4.47;3.77;;;;;;;10.31;76.86;99231.56;5170648;27;40049;-77
2022/04/27 01:39:16;;;;;;;2.90;2.57;;;;;;;10.37;76.74;99236.53;5169878;27;42372;-79
2022/04/27 01:41:44;;;;;;;3.50;3.20;;;;;;;10.37;76.96;99252.41;5169815;27;43825;-81
2022/04/27 01:44:11;;;;;;;4.83;4.00;;;;;;;10.35;77.09;99239.25;5168750;27;43961;-80
2022/04/27 01:46:39;;;;;;;3.83;3.40;;;;;;;10.31;77.38;99243.00;5169848;27;40096;-80
2022/04/27 01:49:07;;;;;;;4.03;3.33;;;;;;;10.35;76.97;99251.63;5169588;27;41601;-80
2022/04/27 01:54:21;;;;;;;4.00;3.40;;;;;;;10.33;77.19;99266.75;5166370;27;42687;-80
2022/04/27 01:56:52;;;;;;;4.17;3.63;;;;;;;10.33;77.10;99261.44;5152816;27;39889;-80
2022/04/27 01:59:19;;;;;;;4.10;3.27;;;;;;;10.32;77.30;99260.59;5133895;27;42004;-78
2022/04/27 02:01:47;;;;;;;4.73;4.27;;;;;;;10.34;77.12;99264.00;5096941;28;42497;-81
2022/04/27 02:04:14;;;;;;;4.83;4.00;;;;;;;10.32;77.14;99257.94;5113912;28;42528;-80
2022/04/27 02:06:43;;;;;;;6.23;4.90;;;;;;;10.31;77.47;99269.47;5097107;28;38619;-81
2022/04/27 02:09:16;;;;;;;5.13;4.17;;;;;;;10.31;76.99;99268.63;5130664;27;41611;-82
2022/04/27 02:11:48;;;;;;;5.77;4.50;;;;;;;10.30;77.03;99267.75;5110909;28;43659;-79
2022/04/27 02:14:16;;;;;;;5.33;4.30;;;;;;;10.30;77.37;99266.91;5097434;27;41440;-79
2022/04/27 02:16:44;;;;;;;4.17;3.70;;;;;;;10.29;77.03;99266.03;5134679;27;40623;-80
2022/04/27 02:19:15;;;;;;;4.37;3.47;;;;;;;10.29;76.95;99265.19;5117353;27;40914;-83
2022/04/27 02:21:45;;;;;;;4.47;3.60;;;;;;;10.26;77.12;99266.19;5117452;27;44265;-81
2022/04/27 02:24:14;;;;;;;4.13;3.70;;;;;;;10.26;76.96;99271.50;5112562;28;41069;-81
2022/04/27 02:26:44;;;;;;;4.73;3.87;;;;;;;10.25;76.92;99274.25;5114008;28;40126;-79
2022/04/27 02:29:15;;;;;;;4.90;4.07;;;;;;;10.25;76.68;99279.56;5096575;28;40347;-82
2022/04/27 02:31:43;;;;;;;6.40;4.00;;;;;;;10.22;76.72;99280.56;5096415;28;43576;-80
2022/04/27 02:34:11;;;;;;;4.70;3.87;;;;;;;10.16;76.84;99270.25;5112930;28;42153;-82
2022/04/27 02:36:40;;;;;;;4.63;3.83;;;;;;;10.21;76.54;99272.72;5096534;28;40163;-82
2022/04/27 02:39:09;;;;;;;5.13;4.03;;;;;;;10.17;76.58;99277.28;5096297;28;41615;-81
2022/04/27 02:41:37;;;;;;;4.47;3.53;;;;;;;10.14;76.91;99277.44;5096482;28;44742;-82
2022/04/27 02:44:06;;;;;;;5.10;4.10;;;;;;;10.08;76.59;99267.19;5095837;28;41286;-79
2022/04/27 02:46:35;;;;;;;4.17;3.77;;;;;;;10.01;76.80;99271.94;5113757;28;39953;-80
2022/04/27 02:51:51;;;;;;;7.60;4.40;;;;;;;9.84;76.91;99273.78;5127550;27;42850;-78
2022/04/27 02:54:39;;;;;;;5.37;3.93;;;;;;;9.79;76.69;99281.09;5106707;28;42352;-78
2022/04/27 02:57:07;;;;;;;6.47;4.10;;;;;;;9.76;77.21;99287.44;5096504;28;38515;-82
2022/04/27 02:59:35;;;;;;;6.13;4.77;;;;;;;9.70;76.80;99288.59;5096071;28;40543;-81
2022/04/27 03:02:05;;;;;;;7.27;5.13;;;;;;;9.71;77.15;99289.44;5113154;27;42828;-80
2022/04/27 03:04:32;;;;;;;4.33;3.80;;;;;;;9.70;77.36;99293.88;5113127;28;42180;-79
2022/04/27 03:07:00;;;;;;;5.37;3.90;;;;;;;9.62;77.33;99284.63;5094976;28;39971;-82
2022/04/27 03:09:29;;;;;;;5.30;4.37;;;;;;;9.66;77.20;99292.31;5095682;28;41271;-80
2022/04/27 03:11:58;;;;;;;6.87;5.37;;;;;;;9.60;77.43;99284.72;5096573;28;41772;-78
2022/04/27 03:14:34;;;;;;;4.43;3.70;;;;;;;9.67;77.34;99295.81;5109850;28;42244;-78
2022/04/27 03:17:02;;;;;;;5.83;4.53;;;;;;;9.61;77.18;99286.44;5114161;28;39940;-81
2022/04/27 03:19:31;;;;;;;5.63;4.90;;;;;;;9.71;77.26;99294.72;5112902;28;41747;-81
2022/04/27 03:21:59;;;;;;;5.07;3.97;;;;;;;9.69;77.00;99302.75;5112793;27;44328;-83
2022/04/27 03:24:27;;;;;;;5.27;4.47;;;;;;;9.55;77.40;99284.09;5095507;28;41226;-78
2022/04/27 03:27:06;;;;;;;5.67;4.37;;;;;;;9.63;76.73;99300.44;5096070;28;39254;-81
2022/04/27 03:29:33;;;;;;;4.77;3.90;;;;;;;9.56;76.98;99296.38;5095913;28;41150;-82
2022/04/27 03:32:03;;;;;;;5.67;4.47;;;;;;;9.48;76.85;99303.00;5095326;28;42399;-78
2022/04/27 03:34:33;;;;;;;4.93;4.00;;;;;;;9.39;76.97;99301.69;5130198;27;42301;-81
2022/04/27 03:37:00;;;;;;;4.80;3.90;;;;;;;9.30;77.08;99296.84;5116309;27;39254;-82
2022/04/27 03:39:28;;;;;;;5.17;4.00;;;;;;;9.22;77.04;99301.66;5115479;27;40872;-82
2022/04/27 03:41:57;;;;;;;5.37;4.10;;;;;;;9.13;77.03;99302.97;5115807;27;42765;-82
2022/04/27 03:44:25;;;;;;;4.37;3.93;;;;;;;9.05;76.99;99309.56;5132081;27;42069;-77
2022/04/27 03:46:53;;;;;;;4.13;3.60;;;;;;;8.97;77.21;99318.72;5116286;27;38850;-81
2022/04/27 03:49:21;;;;;;;5.90;3.70;;;;;;;8.92;77.35;99309.28;5115247;27;40423;-82
2022/04/27 03:51:50;;;;;;;4.70;4.20;;;;;;;8.86;77.10;99321.03;5133084;27;44187;-81
2022/04/27 03:54:19;;;;;;;5.47;4.07;;;;;;;8.81;77.04;99320.38;5115743;27;40666;-80
2022/04/27 03:56:47;;;;;;;4.43;3.60;;;;;;;8.73;77.21;99325.19;5115811;27;40617;-81
2022/04/27 03:59:16;;;;;;;5.33;4.40;;;;;;;8.66;77.11;99323.75;5133298;27;41614;-81
2022/04/27 04:01:44;;;;;;;5.70;3.97;;;;;;;8.60;77.23;99329.34;5157063;27;42603;-77
2022/04/27 04:04:12;;;;;;;4.80;3.93;;;;;;;8.44;77.04;99323.91;5157370;27;42377;-79
2022/04/27 04:06:39;;;;;;;5.10;4.00;;;;;;;8.49;77.36;99342.19;5136505;27;39769;-80
2022/04/27 04:09:10;;;;;;;3.63;3.23;;;;;;;8.43;77.35;99334.53;5153288;27;41451;-81
2022/04/27 04:11:38;;;;;;;5.50;4.20;;;;;;;8.29;77.37;99317.50;5154040;27;42339;-80
2022/04/27 04:14:24;;;;;;;6.27;4.53;;;;;;;8.34;77.61;99333.16;5152834;27;41916;-79
2022/04/27 04:17:01;;;;;;;4.93;4.03;;;;;;;8.33;77.84;99341.16;5136265;27;39884;-77
2022/04/27 04:19:49;;;;;;;7.50;4.77;;;;;;;8.29;77.81;99351.81;5141819;27;42153;-79
2022/04/27 04:22:39;;;;;;;5.90;4.07;;;;;;;8.26;77.81;99341.41;5153672;27;44000;-82
2022/04/27 04:28:31;;;;;;;5.07;3.80;;;;;;;8.21;77.61;99359.22;5111352;28;39020;-79
2022/04/27 04:31:00;;;;;;;4.93;4.47;;;;;;;8.19;77.85;99361.06;5105689;27;43180;-82
2022/04/27 04:33:32;;;;;;;5.53;4.37;;;;;;;8.18;77.90;99362.00;5130925;27;42722;-80
2022/04/27 04:36:00;;;;;;;6.57;5.07;;;;;;;8.18;77.82;99367.28;5131951;27;43424;-78
2022/04/27 04:38:28;;;;;;;6.60;4.67;;;;;;;8.18;77.73;99369.91;5132171;27;40964;-78
2022/04/27 04:41:02;;;;;;;6.67;4.83;;;;;;;8.19;77.73;99371.63;5115116;27;40957;-79
2022/04/27 04:43:38;;;;;;;4.00;3.50;;;;;;;8.23;77.97;99377.63;5130151;27;43714;-81
2022/04/27 04:46:07;;;;;;;8.00;5.70;;;;;;;8.26;77.76;99377.50;5114990;27;41484;-80
2022/04/27 04:48:40;;;;;;;4.77;4.03;;;;;;;8.31;77.45;99388.69;5132055;27;40968;-80
2022/04/27 04:51:31;;;;;;;5.67;4.10;;;;;;;8.36;77.47;99378.81;5131935;27;41954;-78
2022/04/27 04:54:21;;;;;;;4.97;4.37;;;;;;;8.42;77.39;99382.94;5093502;27;44433;-80
2022/04/27 04:57:03;;;;;;;6.67;5.27;;;;;;;8.48;77.08;99395.88;5128420;27;42975;-80
2022/04/27 04:59:57;;;;;;;4.73;3.57;;;;;;;8.54;77.04;99398.25;5114400;27;39354;-82
2022/04/27 05:02:45;;;;;;;6.23;3.63;;;;;;;8.60;76.98;99398.81;5132063;27;41728;-82
2022/04/27 05:05:39;;;;;;;5.13;4.17;;;;;;;8.66;76.88;99397.66;5102710;27;42372;-82
2022/04/27 05:08:19;;;;;;;4.73;3.53;;;;;;;8.67;77.19;99399.38;5131152;27;43513;-78
2022/04/27 05:11:05;;;;;;;4.33;3.73;;;;;;;8.79;77.17;99414.66;5131919;27;39382;-79
2022/04/27 05:13:53;;;;;;;5.40;4.13;;;;;;;8.86;76.82;99415.25;5131434;27;41325;-80
2022/04/27 05:16:27;;;;;;;6.17;4.70;;;;;;;8.92;76.97;99420.25;5129905;27;43634;-79
2022/04/27 05:19:21;;;;;;;5.80;4.37;;;;;;;8.97;76.79;99416.47;5114134;27;41933;-77
2022/04/27 05:22:15;;;;;;;4.93;3.70;;;;;;;9.09;76.83;99422.09;5128571;27;39696;-81
2022/04/27 05:25:07;;;;;;;6.03;4.30;;;;;;;9.12;76.86;99412.25;5132185;27;41708;-84
2022/04/27 05:27:58;;;;;;;7.33;5.30;;;;;;;9.19;76.82;99413.66;5111271;27;41611;-81
2022/04/27 05:34:08;;;;;;;6.00;5.07;;;;;;;9.42;76.59;99431.03;5117185;27;39312;-79
2022/04/27 05:36:41;;;;;;;6.10;4.77;;;;;;;9.51;76.92;99430.63;5131870;27;41597;-79
2022/04/27 05:39:27;;;;;;;6.60;5.07;;;;;;;9.65;76.94;99438.69;5134665;27;41955;-80
2022/04/27 05:42:20;;;;;;;9.47;6.00;;;;;;;9.78;76.55;99438.94;5117208;27;41433;-80
2022/04/27 05:45:15;;;;;;;5.83;5.17;;;;;;;9.94;76.08;99449.63;5131957;27;40256;-82
2022/04/27 05:47:50;;;;;;;7.30;5.53;;;;;;;10.06;76.00;99455.16;5133022;27;42040;-79
2022/04/27 05:50:56;;;;;;;6.10;4.63;;;;;;;10.04;75.56;99440.28;5092572;28;43574;-79
2022/04/27 05:53:42;;;;;;;6.80;4.97;;;;;;;10.20;75.63;99451.84;5072505;28;42763;-82
2022/04/27 05:56:28;;;;;;;8.60;6.47;;;;;;;10.37;75.40;99448.31;5097228;28;40051;-79
2022/04/27 05:59:20;;;;;;;6.80;6.10;;;;;;;10.64;74.82;99459.22;5102957;28;42218;-77
2022/04/27 06:02:10;;;;;;;7.20;5.70;;;;;;;10.89;74.70;99456.13;5110451;28;42995;-77
2022/04/27 06:04:40;;;;;;;9.77;6.47;;;;;;;10.90;74.07;99421.59;5096243;28;40882;-78
2022/04/27 06:07:08;;;;;;;8.17;5.33;;;;;;;11.39;74.01;99466.59;5122864;27;39899;-82
2022/04/27 06:09:35;;;;;;;7.70;5.73;;;;;;;11.57;73.71;99470.03;5113560;28;42783;-80
2022/04/27 06:12:10;;;;;;;7.60;6.20;;;;;;;11.88;73.18;99480.59;5116919;27;42721;-79
2022/04/27 06:14:44;;;;;;;8.23;6.23;;;;;;;12.11;72.32;99472.19;5149448;27;42268;-78
2022/04/27 06:17:18;;;;;;;7.97;6.40;;;;;;;12.46;72.02;99478.03;5135970;27;39960;-79
2022/04/27 06:19:48;;;;;;;7.40;6.17;;;;;;;12.55;71.51;99477.47;5126977;27;43565;-81
2022/04/27 06:22:16;;;;;;;8.57;6.90;;;;;;;12.55;71.70;99477.47;5116619;27;43292;-81
2022/04/27 06:24:43;;;;;;;8.77;6.77;;;;;;;12.51;71.70;99481.25;5134716;27;43024;-83
2022/04/27 06:27:40;;;;;;;6.93;6.10;;;;;;;12.77;70.66;99474.34;5127747;27;40022;-82
2022/04/27 06:30:09;;;;;;;6.57;5.97;;;;;;;13.08;70.53;99486.63;5126243;27;41205;-82
2022/04/27 06:32:39;;;;;;;7.10;6.10;;;;;;;13.42;69.66;99464.06;5116539;27;42960;-79
2022/04/27 06:35:13;;;;;;;6.57;5.40;;;;;;;14.12;68.36;99495.84;5117425;27;41152;-80
2022/04/27 06:37:42;;;;;;;7.83;6.10;;;;;;;14.40;67.27;99494.88;5123786;27;40532;-82
2022/04/27 06:40:10;;;;;;;8.07;6.90;;;;;;;14.52;66.30;99494.06;5113901;28;42599;-84
2022/04/27 06:42:42;;;;;;;8.80;6.53;;;;;;;14.51;66.63;99493.19;5102447;27;41652;-80
2022/04/27 06:45:29;;;;;;;7.50;6.13;;;;;;;14.39;66.70;99499.34;5133298;27;42565;-81
2022/04/27 06:48:35;;;;;;;8.17;6.90;;;;;;;14.20;66.26;99494.41;5074686;28;40659;-80
2022/04/27 06:51:24;;;;;;;8.83;6.83;;;;;;;14.19;66.97;99505.16;5081633;28;41981;-82
2022/04/27 06:54:11;;;;;;;7.60;6.33;;;;;;;14.32;66.94;99498.06;5112767;27;41841;-82
2022/04/27 06:56:57;;;;;;;9.60;7.17;;;;;;;14.65;66.30;99511.75;5134601;27;40986;-83
2022/04/27 06:59:53;;;;;;;9.03;7.83;;;;;;;14.39;65.67;99504.66;5141294;27;40316;-80
2022/04/27 07:02:21;;;;;;;9.30;7.37;;;;;;;14.22;65.87;99499.59;5153470;27;41151;-79
2022/04/27 07:04:55;;;;;;;9.03;7.53;;;;;;;14.28;66.13;99520.53;5119726;27;41811;-80
2022/04/27 07:07:24;;;;;;;7.17;6.03;;;;;;;14.21;66.53;99524.56;5116753;27;41249;-82
2022/04/27 07:09:53;;;;;;;8.30;7.07;;;;;;;13.88;66.69;99479.69;5117311;27;39019;-84
2022/04/27 07:12:21;;;;;;;7.97;7.17;;;;;;;14.16;67.01;99524.00;5135842;27;41503;-84
2022/04/27 07:14:51;;;;;;;9.77;7.83;;;;;;;14.27;66.68;99516.16;5116925;27;42397;-87
2022/04/27 07:17:19;;;;;;;9.10;7.83;;;;;;;14.87;65.33;99526.28;5133079;27;43204;-81
2022/04/27 07:19:47;;;;;;;10.07;8.17;;;;;;;15.42;64.24;99526.78;5134053;27;40776;-80
2022/04/27 07:22:16;;;;;;;8.23;7.03;;;;;;;15.97;62.57;99546.81;5119677;27;41770;-85
2022/04/27 07:24:45;;;;;;;8.23;7.37;;;;;;;16.16;62.55;99539.16;5151455;27;42677;-84
2022/04/27 07:27:13;;;;;;;8.67;7.67;;;;;;;16.15;62.79;99547.28;5137541;27;42123;-82
2022/04/27 07:29:41;;;;;;;8.50;7.63;;;;;;;16.02;62.10;99536.66;5137291;27;40270;-83
2022/04/27 07:32:08;;;;;;;9.50;7.40;;;;;;;16.12;62.68;99544.81;5120278;27;40827;-82
2022/04/27 07:34:36;;;;;;;8.80;7.37;;;;;;;16.29;61.95;99554.28;5154505;27;42870;-82
2022/04/27 07:37:05;;;;;;;9.27;7.63;;;;;;;16.32;62.69;99538.00;5135533;27;42050;-83
2022/04/27 07:39:33;;;;;;;7.83;7.00;;;;;;;16.61;62.25;99563.38;5152002;27;40024;-85
2022/04/27 07:42:03;;;;;;;7.70;6.90;;;;;;;17.31;60.87;99563.28;5133158;27;40408;-83
2022/04/27 07:44:31;;;;;;;8.10;6.77;;;;;;;17.99;58.47;99575.69;5132673;27;42806;-81
2022/04/27 07:46:58;;;;;;;7.30;6.33;;;;;;;18.21;57.66;99583.69;5109245;27;41455;-80
2022/04/27 07:49:26;;;;;;;7.00;6.13;;;;;;;18.46;56.49;99589.69;5154896;27;39709;-80
2022/04/27 07:51:54;;;;;;;6.87;6.17;;;;;;;18.25;56.33;99585.16;5152812;27;42064;-83
2022/04/27 07:54:22;;;;;;;7.63;6.77;;;;;;;18.13;56.63;99596.88;5130382;27;42682;-78
2022/04/27 07:56:49;;;;;;;6.87;6.17;;;;;;;17.72;57.18;99573.44;5132014;27;42268;-79
2022/04/27 07:59:18;;;;;;;9.53;6.97;;;;;;;17.62;58.12;99587.66;5153946;27;39815;-86
2022/04/27 08:01:46;;;;;;;6.77;6.07;;;;;;;17.36;57.82;99590.56;5153476;27;40882;-83
2022/04/27 08:04:14;;;;;;;7.10;6.40;;;;;;;17.14;58.57;99587.88;5132613;27;42749;-82
2022/04/27 08:06:41;;;;;;;7.57;6.73;;;;;;;17.06;59.43;99563.53;5132550;27;42201;-82
2022/04/27 08:09:09;;;;;;;8.13;6.63;;;;;;;17.19;59.36;99597.22;5131858;27;38948;-84
2022/04/27 08:11:39;;;;;;;6.73;5.80;;;;;;;17.81;58.40;99594.09;5132535;27;41772;-77
2022/04/27 08:14:07;;;;;;;9.00;7.07;;;;;;;18.71;56.71;99600.09;5114259;27;41559;-78
2022/04/27 08:16:37;;;;;;;8.13;7.20;;;;;;;19.44;54.22;99609.06;5114952;27;41148;-78
2022/04/27 08:19:04;;;;;;;7.07;5.77;;;;;;;20.31;52.65;99627.22;5131654;27;39938;-89
2022/04/27 08:21:32;;;;;;;6.53;5.93;;;;;;;21.06;51.61;99631.97;5133520;27;41697;-79
2022/04/27 08:24:00;;;;;;;6.27;5.60;;;;;;;21.71;49.56;99640.22;5113516;27;41758;-77
2022/04/27 08:26:27;;;;;;;6.30;5.70;;;;;;;21.86;47.97;99650.38;5114754;27;41901;-81
2022/04/27 08:28:55;;;;;;;6.30;5.70;;;;;;;22.24;49.67;99648.53;5114173;27;39924;-81
2022/04/27 08:31:22;;;;;;;6.07;5.47;;;;;;;22.88;46.30;99663.72;5136479;27;42322;-80
2022/04/27 08:33:52;;;;;;;6.20;5.67;;;;;;;23.81;45.23;99651.47;5134897;27;41864;-81
2022/04/27 08:36:19;;;;;;;5.37;4.87;;;;;;;23.88;43.64;99676.84;5133428;27;42308;-82
2022/04/27 08:38:47;;;;;;;5.77;5.27;;;;;;;24.79;41.89;99688.75;5131357;27;40136;-79
2022/04/27 08:41:15;;;;;;;5.87;5.37;;;;;;;25.90;40.92;99662.81;5131990;27;40794;-81
2022/04/27 08:43:43;;;;;;;5.40;4.90;;;;;;;26.67;37.40;99701.06;5147046;27;42459;-80
2022/04/27 08:46:14;;;;;;;5.37;4.87;;;;;;;26.90;38.22;99684.78;5152074;27;41133;-84
2022/04/27 08:48:47;;;;;;;5.27;4.77;;;;;;;27.49;36.95;99686.69;5136287;27;40712;-80
2022/04/27 08:51:16;;;;;;;5.60;5.10;;;;;;;27.66;37.55;99698.31;5132567;27;40487;-82
2022/04/27 08:53:44;;;;;;;4.93;4.50;;;;;;;27.12;36.89;99670.38;5131470;27;41998;-81
2022/04/27 08:56:13;;;;;;;5.73;5.00;;;;;;;26.68;37.43;99689.16;5131828;27;43242;-80
2022/04/27 08:58:41;;;;;;;4.90;4.50;;;;;;;26.40;36.80;99708.66;5129844;27;39057;-79
2022/04/27 09:01:08;;;;;;;5.67;5.17;;;;;;;26.75;37.62;99698.28;5152637;27;41728;-79
2022/04/27 09:03:37;;;;;;;5.13;4.73;;;;;;;27.24;35.76;99719.72;5152882;27;43458;-80
2022/04/27 09:06:06;;;;;;;5.00;4.50;;;;;;;27.80;36.49;99704.81;5138138;27;41002;-81
2022/04/27 09:08:40;;;;;;;5.03;4.57;;;;;;;28.56;35.88;99711.81;5128927;27;39903;-80
2022/04/27 09:11:12;;;;;;;5.57;5.07;;;;;;;29.64;33.31;99723.47;5143483;27;42458;-80
2022/04/27 09:13:40;;;;;;;5.40;4.93;;;;;;;30.86;31.42;99734.75;5130673;27;43854;-80
2022/04/27 09:16:08;;;;;;;5.87;5.27;;;;;;;30.95;30.32;99739.00;5131365;27;41068;-81
2022/04/27 09:22:00;;;;;;;5.07;4.67;;;;;;;32.88;27.01;99757.94;5098221;27;40631;-79
2022/04/27 09:24:46;;;;;;;5.77;4.70;;;;;;;34.01;25.00;99780.03;5117727;27;43265;-79
2022/04/27 09:27:17;;;;;;;4.90;4.60;;;;;;;34.98;24.45;99765.47;5134351;27;42385;-80
2022/04/27 09:29:44;;;;;;;4.65;4.25;;;;;;;35.55;23.93;99760.44;5137761;27;39858;-77
2022/04/27 09:32:16;;;;;;;3.92;3.63;;;;;;;35.22;24.29;99750.75;5154708;27;41753;-78
2022/04/27 09:34:45;;;;;;;4.20;3.90;;;;;;;34.18;25.11;99748.16;5155344;27;43089;-78
2022/04/27 09:37:16;;;;;;;4.87;4.47;;;;;;;33.30;24.79;99734.50;5154199;27;43146;-79
2022/04/27 09:39:46;;;;;;;5.40;4.63;;;;;;;32.15;25.90;99735.31;5138041;27;39074;-79
2022/04/27 09:42:14;;;;;;;5.13;4.67;;;;;;;30.97;27.63;99720.47;5150597;27;40788;-78
2022/04/27 09:44:44;;;;;;;5.10;4.70;;;;;;;29.88;29.43;99713.16;5135348;27;42752;-78
2022/04/27 09:47:12;;;;;;;5.97;5.47;;;;;;;29.31;29.42;99720.41;5119479;27;42262;-78
2022/04/27 09:49:46;;;;;;;5.50;5.10;;;;;;;29.16;30.00;99691.53;5155247;27;40627;-79
2022/04/27 09:52:16;;;;;;;5.80;5.30;;;;;;;29.30;30.88;99698.78;5154214;27;40737;-79
2022/04/27 09:54:46;;;;;;;6.50;5.90;;;;;;;29.61;30.18;99693.00;5160309;27;42606;-80
2022/04/27 09:57:17;;;;;;;5.87;5.37;;;;;;;29.94;28.67;99706.88;5142945;27;42263;-81
2022/04/27 09:59:46;;;;;;;4.97;4.57;;;;;;;30.14;28.13;99718.81;5134679;27;38694;-83
2022/04/27 10:02:24;;;;;;;5.63;5.13;;;;;;;29.89;27.83;99721.16;5133794;27;41885;-79
2022/04/27 10:04:53;;;;;;;5.37;4.87;;;;;;;29.47;28.99;99721.22;5117186;27;44184;-81
2022/04/27 10:07:23;;;;;;;6.00;5.50;;;;;;;29.24;30.06;99716.78;5134173;27;42288;-79
2022/04/27 10:09:54;;;;;;;6.87;6.27;;;;;;;29.26;30.37;99697.50;5116191;27;38989;-79
2022/04/27 10:12:21;;;;;;;5.40;4.90;;;;;;;29.39;30.35;99702.25;5106489;27;40597;-80
2022/04/27 10:14:49;;;;;;;6.43;5.93;;;;;;;29.07;29.83;99709.88;5135392;27;43022;-80
2022/04/27 10:17:17;;;;;;;5.27;4.67;;;;;;;28.48;30.83;99692.81;5119079;27;41343;-83
2022/04/27 10:19:45;;;;;;;6.83;6.23;;;;;;;28.26;31.49;99693.78;5156428;27;40261;-83
2022/04/27 10:22:27;;;;;;;6.10;5.60;;;;;;;28.18;30.84;99694.75;5133628;27;41625;-83
2022/04/27 10:24:57;;;;;;;6.87;6.23;;;;;;;27.98;32.25;99688.97;5134027;27;43293;-81
2022/04/27 10:27:26;;;;;;;6.10;5.47;;;;;;;27.78;31.88;99682.38;5133018;27;42817;-82
2022/04/27 10:30:02;;;;;;;5.73;5.13;;;;;;;27.61;32.99;99683.56;5133931;27;40165;-81
2022/04/27 10:32:42;;;;;;;5.83;5.33;;;;;;;27.73;33.10;99676.63;5138966;27;41205;-82
2022/04/27 10:35:17;;;;;;;5.27;4.87;;;;;;;27.88;32.89;99669.34;5154986;27;42299;-80
2022/04/27 10:37:47;;;;;;;6.07;5.47;;;;;;;28.68;31.25;99684.88;5143332;27;42981;-82
2022/04/27 10:40:42;;;;;;;4.97;4.57;;;;;;;29.85;29.22;99708.06;5134498;27;40999;-76
2022/04/27 10:43:13;;;;;;;5.87;5.33;;;;;;;30.19;27.59;99705.38;5123050;27;40896;-76
2022/04/27 10:45:43;;;;;;;5.80;5.20;;;;;;;30.49;27.96;99705.13;5120263;27;42996;-79
2022/04/27 10:48:16;;;;;;;6.40;5.90;;;;;;;30.73;27.24;99717.44;5132669;27;42286;-79
2022/04/27 10:50:55;;;;;;;4.97;4.27;;;;;;;31.88;27.44;99706.28;5130690;27;40875;-78
2022/04/27 10:53:24;;;;;;;5.13;4.73;;;;;;;32.80;25.93;99711.53;5145642;27;44070;-85
2022/04/27 10:55:55;;;;;;;6.33;4.97;;;;;;;33.64;23.81;99741.41;5154204;27;41637;-84
2022/04/27 10:58:34;;;;;;;4.43;4.03;;;;;;;34.11;22.71;99736.41;5136307;27;40821;-80
2022/04/27 11:01:27;;;;;;;4.83;4.43;;;;;;;34.12;23.27;99738.91;5154445;27;38704;-81
2022/04/27 11:04:11;;;;;;;3.90;3.60;;;;;;;34.65;23.25;99734.72;5146577;27;42072;-77
2022/04/27 11:07:18;;;;;;;3.57;3.30;;;;;;;35.12;23.67;99725.66;5150731;27;42615;-81
2022/04/27 11:10:09;;;;;;;3.73;3.43;;;;;;;35.64;23.00;99728.69;5152010;27;42252;-81
2022/04/27 11:12:40;;;;;;;4.47;4.17;;;;;;;36.10;21.35;99746.41;5154358;27;41341;-80
2022/04/27 11:15:10;;;;;;;4.77;4.33;;;;;;;36.82;21.10;99744.16;5154349;27;42886;-80
2022/04/27 11:17:40;;;;;;;4.67;4.27;;;;;;;37.58;19.95;99740.94;5136115;27;41687;-82
2022/04/27 11:20:23;;;;;;;4.10;3.80;;;;;;;37.70;20.74;99746.44;5154223;27;42853;-81
2022/04/27 11:22:51;;;;;;;3.43;3.13;;;;;;;37.12;18.65;99761.31;5135870;27;40002;-81
2022/04/27 11:25:30;;;;;;;3.87;3.57;;;;;;;35.70;19.70;99747.03;5153690;27;42704;-83
2022/04/27 11:28:00;;;;;;;3.83;3.30;;;;;;;34.62;21.26;99735.22;5151367;27;42962;-79
2022/04/27 11:30:30;;;;;;;3.73;3.30;;;;;;;34.53;23.46;99716.25;5153729;27;42216;-80
2022/04/27 11:32:58;;;;;;;3.33;3.03;;;;;;;33.65;22.13;99723.88;5125829;27;39337;-78
2022/04/27 11:35:26;;;;;;;4.20;3.13;;;;;;;33.58;22.35;99723.09;5132468;27;40860;-79
2022/04/27 11:37:55;;;;;;;3.17;2.97;;;;;;;32.71;20.34;99751.22;5141281;27;41836;-78
2022/04/27 11:40:25;;;;;;;1.93;1.83;;;;;;;31.62;20.02;99754.53;5134037;27;43163;-80
2022/04/27 11:42:54;;;;;;;1.93;1.83;;;;;;;32.16;22.32;99731.53;5140228;27;39268;-77
2022/04/27 11:45:26;;;;;;;3.37;3.17;;;;;;;33.12;22.61;99717.91;5153281;27;41650;-79
2022/04/27 11:47:59;;;;;;;3.17;2.93;;;;;;;33.74;23.62;99718.94;5126369;27;41792;-81
2022/04/27 11:50:27;;;;;;;3.27;3.07;;;;;;;33.87;22.02;99725.22;5115325;27;42499;-81
2022/04/27 11:53:02;;;;;;;3.30;3.00;;;;;;;34.28;23.39;99701.75;5122001;27;41380;-82
2022/04/27 11:55:31;;;;;;;3.40;3.10;;;;;;;35.39;21.78;99714.25;5132557;27;40742;-80
2022/04/27 11:57:59;;;;;;;2.80;2.60;;;;;;;36.21;20.94;99687.63;5131425;27;41896;-80
2022/04/27 12:00:30;;;;;;;2.70;2.50;;;;;;;37.40;20.17;99733.72;5132735;27;43241;-83
2022/04/27 12:03:03;;;;;;;3.20;3.00;;;;;;;38.60;18.99;99742.53;5141851;27;38810;-83
2022/04/27 12:05:32;;;;;;;3.13;2.90;;;;;;;39.59;17.54;99745.06;5149922;27;41849;-81
2022/04/27 12:08:01;;;;;;;2.90;2.70;;;;;;;40.34;17.03;99744.84;5129273;27;43689;-82
2022/04/27 12:10:29;;;;;;;2.63;2.43;;;;;;;41.02;15.99;99714.31;5113795;27;40732;-81
2022/04/27 12:13:00;;;;;;;2.55;2.35;;;;;;;41.79;15.01;99760.63;5127963;27;39921;-79
2022/04/27 12:15:29;;;;;;;2.33;2.13;;;;;;;41.97;14.84;99751.72;5120568;27;41877;-79
2022/04/27 12:17:57;;;;;;;2.80;2.60;;;;;;;40.79;15.05;99746.22;5130513;27;42879;-80